Forside
METAR-TAF:

METAR-TAF

Lufthavne :

Harare, Zimbabwe

Breddekreds: 17-55S, længdekreds: 031-08E, højde: 1479 m

Aktuelle vejr

Denne rapport blev lavet for 1 time og 4 minutter siden, kl. 18:00 UTC
Vind 7 kt fra øst
Temperatur 15°C
Fugtighed 55%
Tryk 1028 hPa
Sigt 10 km eller mere
ingen skyer under 1500m og ingen cumulonimbus

METAR: FVHA 221800Z 10007KT CAVOK 15/06 Q1028 NOSIG

Tid: 21:04 (19:04 UTC)

Vejrudsigter

Denne rapport blev lavet for 9 timer og 4 minutter siden, kl. 10:00 UTC
Foreløbig gælder fra 22 på 12 UTC til 23 på 18 UTC
Vind 8 kt fra sydøst
Sigt 10 km eller mere
ingen skyer under 1500m og ingen cumulonimbus

TAF: FVHA 221000Z 2212/2318 14008KT CAVOK

Vejrobservationer og prognoser fra mere end 4000 lufthavne (METAR og TAF).

De gule og røde prikker repræsenterer de meteorologiske stationer.

Flyt musen over at se navnet på stationen.

Så klik over at se vejr observationer og prognoser.

At skifte det kort: Klik på de grønne knapper med et sort kors for at zoome ind; på den grønne knap med en bindestreg for at zoome ud; eller på de grønne pile for tilstødende kort.


METAR-TAF: